createdAt,value
2019-02-20T00:01:55.976Z,9.78
2019-02-20T00:04:25.249Z,9.77
2019-02-20T00:06:54.550Z,9.74
2019-02-20T00:09:25.195Z,9.73
2019-02-20T00:11:54.476Z,9.64
2019-02-20T00:14:23.801Z,9.72
2019-02-20T00:16:53.094Z,9.81
2019-02-20T00:19:22.349Z,9.68
2019-02-20T00:21:51.650Z,9.78
2019-02-20T00:24:20.907Z,9.63
2019-02-20T00:26:50.210Z,9.71
2019-02-20T00:29:19.473Z,9.62
2019-02-20T00:31:48.778Z,9.70
2019-02-20T00:34:18.157Z,9.64
2019-02-20T00:36:47.449Z,9.61
2019-02-20T00:39:18.593Z,9.81
2019-02-20T00:41:47.857Z,9.87
2019-02-20T00:44:32.440Z,9.89
2019-02-20T00:47:35.881Z,9.97
2019-02-20T00:50:05.545Z,10.04
2019-02-20T00:52:59.893Z,9.62
2019-02-20T00:55:29.150Z,9.65
2019-02-20T00:57:58.468Z,9.78
2019-02-20T01:00:27.813Z,9.90
2019-02-20T01:02:57.120Z,9.99
2019-02-20T01:05:26.455Z,10.11
2019-02-20T01:07:55.686Z,10.10
2019-02-20T01:10:25.033Z,9.87
2019-02-20T01:12:54.296Z,9.93
2019-02-20T01:15:23.675Z,10.10
2019-02-20T01:17:52.929Z,9.99
2019-02-20T01:20:22.211Z,10.30
2019-02-20T01:22:59.633Z,10.48
2019-02-20T01:25:22.483Z,10.39
2019-02-20T01:27:51.812Z,10.50
2019-02-20T01:30:21.153Z,10.57
2019-02-20T01:32:50.482Z,10.60
2019-02-20T01:35:20.964Z,10.27
2019-02-20T01:37:50.292Z,10.37
2019-02-20T01:40:19.730Z,10.58
2019-02-20T01:42:49.034Z,10.52
2019-02-20T01:45:20.940Z,10.54
2019-02-20T01:47:50.240Z,10.27
2019-02-20T01:50:22.212Z,10.44
2019-02-20T01:52:51.486Z,10.50
2019-02-20T01:55:23.505Z,10.77
2019-02-20T01:57:52.777Z,10.56
2019-02-20T02:00:22.126Z,10.39
2019-02-20T02:02:51.480Z,10.37
2019-02-20T02:05:20.856Z,10.53
2019-02-20T02:07:50.110Z,10.32
2019-02-20T02:10:20.660Z,10.58
2019-02-20T02:12:49.897Z,10.37
2019-02-20T02:15:20.751Z,10.43
2019-02-20T02:17:50.143Z,10.39
2019-02-20T02:20:19.594Z,10.54
2019-02-20T02:22:48.883Z,10.22
2019-02-20T02:25:18.175Z,10.20
2019-02-20T02:27:47.428Z,10.19
2019-02-20T02:30:16.852Z,10.20
2019-02-20T02:32:46.100Z,10.41
2019-02-20T02:35:15.412Z,10.26
2019-02-20T02:37:44.676Z,10.45
2019-02-20T02:40:13.973Z,10.47
2019-02-20T02:42:43.212Z,10.34
2019-02-20T02:45:12.498Z,10.57
2019-02-20T02:47:41.748Z,10.59
2019-02-20T02:50:11.010Z,10.83
2019-02-20T02:52:40.291Z,10.66
2019-02-20T02:55:09.567Z,10.68
2019-02-20T02:57:38.842Z,10.62
2019-02-20T03:00:08.522Z,10.43
2019-02-20T03:02:37.752Z,10.73
2019-02-20T03:05:07.911Z,10.69
2019-02-20T03:07:37.182Z,10.83
2019-02-20T03:10:07.039Z,10.62
2019-02-20T03:12:36.302Z,10.51
2019-02-20T03:15:06.273Z,10.77
2019-02-20T03:17:35.559Z,10.71
2019-02-20T03:20:05.415Z,10.73
2019-02-20T03:22:34.695Z,10.61
2019-02-20T03:25:03.994Z,10.60
2019-02-20T03:27:33.271Z,10.72
2019-02-20T03:30:02.540Z,10.62
2019-02-20T03:32:33.042Z,10.75
2019-02-20T03:35:02.378Z,10.62
2019-02-20T03:37:31.670Z,11.18
2019-02-20T03:40:00.996Z,10.86
2019-02-20T03:42:30.270Z,10.71
2019-02-20T03:44:59.605Z,10.96
2019-02-20T03:47:28.894Z,10.99
2019-02-20T03:49:58.193Z,10.95
2019-02-20T03:52:27.478Z,10.79
2019-02-20T03:54:56.793Z,10.84
2019-02-20T03:57:26.094Z,10.98
2019-02-20T03:59:55.360Z,10.82
2019-02-20T04:02:24.737Z,10.70
2019-02-20T04:04:54.004Z,10.80
2019-02-20T04:07:23.281Z,10.64
2019-02-20T04:09:52.522Z,10.62
2019-02-20T04:12:21.858Z,10.87
2019-02-20T04:14:51.147Z,10.60
2019-02-20T04:17:20.441Z,10.48
2019-02-20T04:19:49.781Z,10.70
2019-02-20T04:22:19.064Z,10.54
2019-02-20T04:24:48.525Z,10.80
2019-02-20T04:27:17.782Z,10.67
2019-02-20T04:29:47.068Z,10.42
2019-02-20T04:32:16.343Z,10.63
2019-02-20T04:34:45.689Z,10.65
2019-02-20T04:37:14.976Z,10.65
2019-02-20T04:39:44.236Z,10.49
2019-02-20T04:42:13.522Z,10.01
2019-02-20T04:44:42.767Z,10.08
2019-02-20T04:47:12.021Z,10.62
2019-02-20T04:49:41.318Z,10.75
2019-02-20T04:52:10.606Z,10.78
2019-02-20T04:54:39.892Z,10.50
2019-02-20T04:57:09.186Z,10.76
2019-02-20T04:59:38.495Z,10.79
2019-02-20T05:02:07.760Z,10.75
2019-02-20T05:04:37.142Z,10.60
2019-02-20T05:07:06.437Z,10.50
2019-02-20T05:09:35.738Z,10.55
2019-02-20T05:12:05.190Z,10.65
2019-02-20T05:14:34.470Z,10.30
2019-02-20T05:17:03.737Z,10.76
2019-02-20T05:19:33.033Z,10.66
2019-02-20T05:22:02.300Z,10.50
2019-02-20T05:24:31.621Z,10.38
2019-02-20T05:27:00.866Z,10.36
2019-02-20T05:29:30.159Z,10.21
2019-02-20T05:31:59.434Z,10.31
2019-02-20T05:34:28.785Z,10.31
2019-02-20T05:36:58.085Z,10.22
2019-02-20T05:39:27.376Z,10.37
2019-02-20T05:41:56.675Z,10.35
2019-02-20T05:44:25.984Z,10.56
2019-02-20T05:46:55.277Z,10.43
2019-02-20T05:49:24.570Z,10.66
2019-02-20T05:51:53.821Z,10.69
2019-02-20T05:54:23.224Z,10.49
2019-02-20T05:56:52.475Z,10.62
2019-02-20T05:59:21.705Z,10.22
2019-02-20T06:01:50.981Z,10.50
2019-02-20T06:04:20.277Z,10.25
2019-02-20T06:06:49.594Z,10.39
2019-02-20T06:09:18.921Z,9.90
2019-02-20T06:11:48.273Z,10.04
2019-02-20T06:14:17.549Z,10.02
2019-02-20T06:16:46.837Z,10.23
2019-02-20T06:19:16.165Z,10.00
2019-02-20T06:21:45.512Z,10.25
2019-02-20T06:24:14.825Z,9.96
2019-02-20T06:26:44.154Z,10.12
2019-02-20T06:29:13.442Z,10.27
2019-02-20T06:31:42.806Z,10.13
2019-02-20T06:34:12.094Z,10.00
2019-02-20T06:36:41.403Z,10.25
2019-02-20T06:39:10.667Z,9.95
2019-02-20T06:41:39.969Z,10.10
2019-02-20T06:44:09.289Z,10.17
2019-02-20T06:46:38.593Z,10.38
2019-02-20T06:49:07.879Z,10.38
2019-02-20T06:51:37.254Z,10.48
2019-02-20T06:54:06.551Z,10.65
2019-02-20T06:56:35.869Z,10.78
2019-02-20T06:59:05.213Z,10.28
2019-02-20T07:01:34.501Z,10.51
2019-02-20T07:04:03.799Z,10.62
2019-02-20T07:06:43.949Z,10.61
2019-02-20T07:09:41.921Z,10.77
2019-02-20T07:12:31.910Z,10.52
2019-02-20T07:15:25.059Z,10.77
2019-02-20T07:18:30.831Z,10.62
2019-02-20T07:21:35.104Z,10.55
2019-02-20T07:24:33.118Z,10.76
2019-02-20T07:28:07.962Z,10.60
2019-02-20T07:30:37.244Z,11.00
2019-02-20T07:33:06.549Z,11.02
2019-02-20T07:35:35.784Z,11.11
2019-02-20T07:38:05.040Z,10.49
2019-02-20T07:40:34.337Z,10.36
2019-02-20T07:43:03.621Z,10.50
2019-02-20T07:45:35.934Z,10.58
2019-02-20T07:48:05.296Z,10.35
2019-02-20T07:50:34.566Z,10.44
2019-02-20T07:53:03.896Z,10.44
2019-02-20T07:55:33.262Z,11.08
2019-02-20T07:58:02.521Z,10.95
2019-02-20T08:00:31.829Z,11.05
2019-02-20T08:03:01.077Z,11.39
2019-02-20T08:05:30.519Z,11.47
2019-02-20T08:07:59.791Z,11.73
2019-02-20T08:10:29.088Z,11.90
2019-02-20T08:12:58.345Z,11.80
2019-02-20T08:15:27.698Z,12.09
2019-02-20T08:17:56.973Z,12.36
2019-02-20T08:20:26.317Z,12.18
2019-02-20T08:22:55.648Z,11.32
2019-02-20T08:25:24.928Z,11.54
2019-02-20T08:27:54.197Z,11.51
2019-02-20T08:30:23.521Z,11.68
2019-02-20T08:32:52.785Z,11.50
2019-02-20T08:35:22.109Z,11.68
2019-02-20T08:37:51.384Z,12.05
2019-02-20T08:40:20.677Z,12.35
2019-02-20T08:42:50.010Z,12.56
2019-02-20T08:45:19.300Z,12.79
2019-02-20T08:47:48.625Z,13.04
2019-02-20T08:50:17.930Z,12.64
2019-02-20T08:52:47.242Z,13.08
2019-02-20T08:55:18.746Z,12.97
2019-02-20T08:57:47.639Z,13.29
2019-02-20T09:00:16.928Z,13.41
2019-02-20T09:02:46.198Z,12.86
2019-02-20T09:05:15.433Z,13.06
2019-02-20T09:07:44.722Z,12.78
2019-02-20T09:10:14.073Z,13.16
2019-02-20T09:12:43.383Z,13.38
2019-02-20T09:15:13.046Z,13.50
2019-02-20T09:17:42.322Z,12.71
2019-02-20T09:20:11.699Z,12.59
2019-02-20T09:22:40.973Z,13.00
2019-02-20T09:25:19.222Z,13.55
2019-02-20T09:27:41.743Z,13.58
2019-02-20T09:30:12.908Z,13.27
2019-02-20T09:32:42.255Z,13.34
2019-02-20T09:35:11.619Z,12.95
2019-02-20T09:37:40.890Z,13.49
2019-02-20T09:40:12.666Z,13.20
2019-02-20T09:42:43.039Z,13.62
2019-02-20T09:45:12.315Z,12.95
2019-02-20T09:47:41.596Z,13.36
2019-02-20T09:50:10.973Z,13.18
2019-02-20T09:52:40.287Z,13.05
2019-02-20T09:55:10.390Z,13.27
2019-02-20T09:57:39.674Z,13.14
2019-02-20T10:00:11.898Z,13.19
2019-02-20T10:02:41.200Z,14.08
2019-02-20T10:05:10.996Z,12.99
2019-02-20T10:07:40.285Z,13.57
2019-02-20T10:10:09.635Z,13.96
2019-02-20T10:12:38.925Z,13.51
2019-02-20T10:15:08.973Z,13.48
2019-02-20T10:17:38.246Z,13.98
2019-02-20T10:20:08.612Z,13.78
2019-02-20T10:22:37.916Z,14.37
2019-02-20T10:25:07.721Z,13.77
2019-02-20T10:27:37.015Z,14.27
2019-02-20T10:30:08.591Z,14.73
2019-02-20T10:32:37.881Z,14.50
2019-02-20T10:35:08.299Z,15.08
2019-02-20T10:37:37.609Z,15.29
2019-02-20T10:40:07.715Z,14.49
2019-02-20T10:42:37.013Z,14.63
2019-02-20T10:45:06.618Z,14.81
2019-02-20T10:47:35.905Z,14.72
2019-02-20T10:50:06.234Z,14.96
2019-02-20T10:52:37.105Z,15.04
2019-02-20T10:55:06.656Z,14.20
2019-02-20T10:57:36.178Z,14.64
2019-02-20T11:00:08.759Z,14.54
2019-02-20T11:02:38.036Z,14.49
2019-02-20T11:05:07.734Z,14.18
2019-02-20T11:07:37.051Z,14.65
2019-02-20T11:10:06.616Z,14.90
2019-02-20T11:12:35.951Z,15.16
2019-02-20T11:15:05.891Z,15.54
2019-02-20T11:17:37.108Z,15.77
2019-02-20T11:20:06.750Z,15.34
2019-02-20T11:22:38.741Z,15.70
2019-02-20T11:25:08.897Z,15.58
2019-02-20T11:27:39.521Z,15.70
2019-02-20T11:30:11.649Z,16.08
2019-02-20T11:32:40.972Z,16.06
2019-02-20T11:35:10.267Z,15.98
2019-02-20T11:37:39.579Z,15.80
2019-02-20T11:40:09.404Z,16.13
2019-02-20T11:42:38.680Z,15.61
2019-02-20T11:45:08.617Z,15.84
2019-02-20T11:47:37.969Z,15.38
2019-02-20T11:50:08.367Z,15.74
2019-02-20T11:52:38.589Z,16.06
2019-02-20T11:55:08.507Z,16.50
2019-02-20T11:57:37.955Z,16.28
2019-02-20T12:00:09.299Z,16.44
2019-02-20T12:02:38.605Z,16.46
2019-02-20T12:05:08.036Z,16.63
2019-02-20T12:07:37.422Z,15.76
2019-02-20T12:10:08.036Z,16.25
2019-02-20T12:12:37.377Z,16.25
2019-02-20T12:15:07.880Z,16.22
2019-02-20T12:17:37.291Z,16.22
2019-02-20T12:20:06.756Z,16.18
2019-02-20T12:22:36.178Z,15.69
2019-02-20T12:25:05.548Z,16.32
2019-02-20T12:27:35.036Z,16.79
2019-02-20T12:30:04.950Z,17.10
2019-02-20T12:32:35.876Z,16.40
2019-02-20T12:35:05.308Z,16.22
2019-02-20T12:37:34.622Z,16.04
2019-02-20T12:40:05.117Z,16.01
2019-02-20T12:42:34.485Z,16.56
2019-02-20T12:45:03.934Z,16.39
2019-02-20T12:47:33.280Z,16.30
2019-02-20T12:50:02.723Z,16.42
2019-02-20T12:52:32.013Z,16.36
2019-02-20T12:55:01.378Z,16.44
2019-02-20T12:57:30.701Z,16.31
2019-02-20T12:59:59.992Z,17.02
2019-02-20T13:02:29.325Z,16.76
2019-02-20T13:04:58.761Z,16.26
2019-02-20T13:07:28.086Z,16.66
2019-02-20T13:09:57.391Z,16.81
2019-02-20T13:12:26.701Z,16.96
2019-02-20T13:14:55.997Z,16.92
2019-02-20T13:17:25.387Z,16.59
2019-02-20T13:19:56.682Z,16.33
2019-02-20T13:22:25.801Z,16.62
2019-02-20T13:24:55.147Z,16.68
2019-02-20T13:27:24.414Z,16.62
2019-02-20T13:29:53.752Z,16.44
2019-02-20T13:32:23.034Z,16.35
2019-02-20T13:34:52.484Z,16.85
2019-02-20T13:37:21.780Z,16.34
2019-02-20T13:39:52.168Z,16.55
2019-02-20T13:42:21.674Z,16.75
2019-02-20T13:44:50.978Z,16.56
2019-02-20T13:47:20.303Z,16.96
2019-02-20T13:49:49.669Z,16.98
2019-02-20T13:52:19.031Z,17.05
2019-02-20T13:54:48.418Z,17.81
2019-02-20T13:57:18.139Z,17.19
2019-02-20T13:59:47.507Z,16.99
2019-02-20T14:02:16.823Z,16.89
2019-02-20T14:04:46.195Z,16.74
2019-02-20T14:07:15.493Z,17.32
2019-02-20T14:09:44.856Z,17.09
2019-02-20T14:12:14.219Z,16.91
2019-02-20T14:14:43.535Z,16.99
2019-02-20T14:17:12.963Z,16.64
2019-02-20T14:19:42.265Z,16.66
2019-02-20T14:22:11.645Z,16.63
2019-02-20T14:24:40.957Z,17.07
2019-02-20T14:27:11.310Z,17.46
2019-02-20T14:29:40.717Z,17.14
2019-02-20T14:32:10.171Z,16.55
2019-02-20T14:34:42.247Z,16.54
2019-02-20T14:37:11.583Z,16.91
2019-02-20T14:39:41.263Z,16.44
2019-02-20T14:42:10.883Z,16.86
2019-02-20T14:44:40.214Z,17.32
2019-02-20T14:47:09.588Z,16.95
2019-02-20T14:49:38.917Z,17.05
2019-02-20T14:52:08.235Z,16.89
2019-02-20T14:54:37.687Z,17.20
2019-02-20T14:57:07.022Z,17.23
2019-02-20T14:59:37.096Z,17.16
2019-02-20T15:02:06.423Z,17.04
2019-02-20T15:04:35.764Z,17.02
2019-02-20T15:07:05.102Z,17.35
2019-02-20T15:09:34.479Z,17.17
2019-02-20T15:12:03.860Z,17.19
2019-02-20T15:14:34.657Z,16.92
2019-02-20T15:17:04.047Z,16.71
2019-02-20T15:19:33.368Z,17.08
2019-02-20T15:22:02.763Z,16.89
2019-02-20T15:24:32.097Z,16.93
2019-02-20T15:27:01.531Z,17.00
2019-02-20T15:29:31.140Z,16.88
2019-02-20T15:32:00.556Z,16.97
2019-02-20T15:34:29.888Z,17.04
2019-02-20T15:36:59.231Z,16.82
2019-02-20T15:39:28.568Z,16.77
2019-02-20T15:41:57.952Z,16.35
2019-02-20T15:44:27.698Z,16.85
2019-02-20T15:46:57.146Z,16.41
2019-02-20T15:49:26.501Z,17.00
2019-02-20T15:51:55.829Z,16.77
2019-02-20T15:54:25.189Z,16.98
2019-02-20T15:56:54.540Z,16.67
2019-02-20T15:59:23.927Z,17.13
2019-02-20T16:01:53.258Z,16.82
2019-02-20T16:04:22.601Z,16.90
2019-02-20T16:06:51.931Z,16.86
2019-02-20T16:09:21.309Z,17.03
2019-02-20T16:11:50.655Z,16.98
2019-02-20T16:14:19.928Z,16.55
2019-02-20T16:16:49.414Z,16.70
2019-02-20T16:19:18.806Z,16.87
2019-02-20T16:21:54.455Z,16.42
2019-02-20T16:24:23.755Z,16.80
2019-02-20T16:26:53.143Z,16.77
2019-02-20T16:29:22.642Z,16.90
2019-02-20T16:31:52.068Z,16.29
2019-02-20T16:34:21.360Z,16.36
2019-02-20T16:36:50.762Z,16.52
2019-02-20T16:39:20.188Z,16.49
2019-02-20T16:41:49.584Z,16.03
2019-02-20T16:44:18.972Z,15.49
2019-02-20T16:46:48.623Z,15.83
2019-02-20T16:49:18.061Z,16.93
2019-02-20T16:51:47.512Z,16.94
2019-02-20T16:54:16.871Z,16.00
2019-02-20T16:56:46.244Z,16.24
2019-02-20T16:59:15.543Z,16.33
2019-02-20T17:01:45.228Z,15.72
2019-02-20T17:04:14.656Z,15.77
2019-02-20T17:06:43.953Z,15.73
2019-02-20T17:09:13.349Z,15.80
2019-02-20T17:11:42.668Z,15.82
2019-02-20T17:14:12.046Z,15.91
2019-02-20T17:16:41.692Z,15.64
2019-02-20T17:19:11.049Z,15.70
2019-02-20T17:21:40.343Z,15.70
2019-02-20T17:24:09.706Z,15.45
2019-02-20T17:26:38.998Z,15.55
2019-02-20T17:29:08.311Z,15.71
2019-02-20T17:31:38.003Z,15.36
2019-02-20T17:34:07.379Z,16.06
2019-02-20T17:36:36.714Z,14.89
2019-02-20T17:39:07.446Z,14.89
2019-02-20T17:41:36.737Z,14.66
2019-02-20T17:44:06.117Z,15.21
2019-02-20T17:46:35.887Z,15.00
2019-02-20T17:49:05.316Z,15.04
2019-02-20T17:51:34.670Z,14.95
2019-02-20T17:54:04.119Z,14.73
2019-02-20T17:56:33.444Z,14.60
2019-02-20T17:59:02.866Z,14.50
2019-02-20T18:01:32.171Z,14.47
2019-02-20T18:04:01.536Z,14.38
2019-02-20T18:06:30.928Z,14.35
2019-02-20T18:09:00.241Z,14.22
2019-02-20T18:11:29.596Z,14.28
2019-02-20T18:13:58.937Z,14.46
2019-02-20T18:16:28.299Z,14.97
2019-02-20T18:18:57.713Z,14.88
2019-02-20T18:21:27.086Z,14.43
2019-02-20T18:23:56.528Z,14.70
2019-02-20T18:26:26.025Z,14.74
2019-02-20T18:28:55.307Z,14.60
2019-02-20T18:31:24.758Z,14.59
2019-02-20T18:33:54.046Z,14.79
2019-02-20T18:36:23.395Z,14.87
2019-02-20T18:38:52.734Z,14.38
2019-02-20T18:41:22.138Z,14.73
2019-02-20T18:43:51.529Z,14.78
2019-02-20T18:46:20.895Z,14.46
2019-02-20T18:48:50.375Z,14.43
2019-02-20T18:51:19.741Z,14.61
2019-02-20T18:53:49.040Z,14.29
2019-02-20T18:56:18.407Z,14.19
2019-02-20T18:58:47.741Z,14.14
2019-02-20T19:01:17.091Z,14.05
2019-02-20T19:03:46.482Z,14.30
2019-02-20T19:06:15.877Z,14.37
2019-02-20T19:08:57.597Z,14.03
2019-02-20T19:11:43.869Z,14.04
2019-02-20T19:14:21.568Z,14.05
2019-02-20T19:17:44.143Z,13.98
2019-02-20T19:20:26.111Z,14.22
2019-02-20T19:23:09.217Z,14.60
2019-02-20T19:26:19.722Z,14.73
2019-02-20T19:29:25.039Z,14.75
2019-02-20T19:32:38.326Z,14.58
2019-02-20T19:35:39.916Z,14.61
2019-02-20T19:38:59.109Z,14.54
2019-02-20T19:42:07.074Z,14.28
2019-02-20T19:44:58.775Z,14.36
2019-02-20T19:48:07.854Z,14.94
2019-02-20T19:51:13.904Z,14.94
2019-02-20T19:54:22.426Z,14.45
2019-02-20T19:57:17.002Z,14.71
2019-02-20T19:59:59.397Z,14.59
2019-02-20T20:02:57.503Z,14.29
2019-02-20T20:06:09.499Z,14.47
2019-02-20T20:09:19.560Z,13.87
2019-02-20T20:12:32.601Z,14.37
2019-02-20T20:15:32.485Z,14.72
2019-02-20T20:18:29.444Z,14.83
2019-02-20T20:21:20.535Z,14.80
2019-02-20T20:24:30.565Z,14.30
2019-02-20T20:27:42.809Z,13.37
2019-02-20T20:30:46.137Z,13.62
2019-02-20T20:33:52.351Z,13.71
2019-02-20T20:36:46.852Z,13.41
2019-02-20T20:39:56.933Z,13.35
2019-02-20T20:43:04.937Z,13.34
2019-02-20T20:45:58.817Z,13.45
2019-02-20T20:48:45.412Z,13.34
2019-02-20T20:51:39.086Z,12.88
2019-02-20T20:55:00.565Z,12.13
2019-02-20T20:57:52.863Z,11.98
2019-02-20T21:01:04.923Z,11.88
2019-02-20T21:03:35.668Z,11.78
2019-02-20T21:06:34.103Z,11.93
2019-02-20T21:09:43.606Z,11.88
2019-02-20T21:12:45.332Z,11.62
2019-02-20T21:16:02.004Z,11.76
2019-02-20T21:18:45.406Z,11.70
2019-02-20T21:21:20.239Z,11.70
2019-02-20T21:24:26.320Z,11.48
2019-02-20T21:27:29.934Z,11.48
2019-02-20T21:30:34.824Z,11.64
2019-02-20T21:33:43.305Z,11.57
2019-02-20T21:36:23.928Z,11.53
2019-02-20T21:39:34.931Z,11.52
2019-02-20T21:42:43.857Z,11.42
2019-02-20T21:45:45.589Z,11.44
2019-02-20T21:49:01.774Z,11.18
2019-02-20T21:52:10.023Z,11.32
2019-02-20T21:55:20.362Z,11.04
2019-02-20T21:58:33.291Z,11.02
2019-02-20T22:01:07.035Z,11.09
2019-02-20T22:04:04.870Z,11.06
2019-02-20T22:07:13.556Z,11.16
2019-02-20T22:10:26.539Z,11.20
2019-02-20T22:13:24.973Z,11.07
2019-02-20T22:16:30.738Z,11.22
2019-02-20T22:19:44.323Z,11.05
2019-02-20T22:22:39.136Z,10.97
2019-02-20T22:26:00.927Z,10.90
2019-02-20T22:29:09.420Z,10.94
2019-02-20T22:32:18.090Z,10.90
2019-02-20T22:35:18.197Z,10.80
2019-02-20T22:38:15.040Z,10.93
2019-02-20T22:41:08.101Z,10.88
2019-02-20T22:44:30.601Z,10.83
2019-02-20T22:47:17.871Z,10.79
2019-02-20T22:50:40.045Z,10.87
2019-02-20T22:53:30.489Z,10.76
2019-02-20T22:56:32.489Z,10.35
2019-02-20T22:59:24.455Z,10.50
2019-02-20T23:02:19.353Z,10.62
2019-02-20T23:04:59.850Z,10.53
2019-02-20T23:07:49.017Z,10.34
2019-02-20T23:10:54.748Z,10.44
2019-02-20T23:13:40.714Z,10.39
2019-02-20T23:16:10.104Z,10.48
2019-02-20T23:18:39.801Z,10.60
2019-02-20T23:21:09.148Z,10.50
2019-02-20T23:23:38.432Z,10.45
2019-02-20T23:26:07.740Z,10.16
2019-02-20T23:28:37.054Z,10.33
2019-02-20T23:31:06.422Z,10.23
2019-02-20T23:33:35.746Z,10.62
2019-02-20T23:36:05.020Z,10.43
2019-02-20T23:38:34.325Z,10.50
2019-02-20T23:41:03.576Z,10.45
2019-02-20T23:43:32.871Z,10.51
2019-02-20T23:46:02.179Z,10.36
2019-02-20T23:48:31.490Z,10.51
2019-02-20T23:51:00.762Z,10.48
2019-02-20T23:53:30.053Z,10.35
2019-02-20T23:55:59.304Z,10.49
2019-02-20T23:58:28.626Z,10.50
